Time;durP1;ratioP1;P1;durP2;ratioP2;P2;SDS_P1;SDS_P2;PMS_P1;PMS_P2;Temp;Humidity;BMP_temperature;BMP_pressure;BME280_temperature;BME280_humidity;BME280_pressure;Samples;Min_cycle;Max_cycle;Signal;HPM_P1;HPM_P2
2022/01/12 06:43:45;;;;;;;51.23;22.77;;;4.20;99.90;;;;;;7277950;19;113652;-78
2022/01/12 06:46:19;;;;;;;56.17;22.67;;;4.20;99.90;;;;;;7336631;19;113228;-79
2022/01/12 06:48:46;;;;;;;56.43;23.37;;;4.30;99.90;;;;;;7335596;19;114275;-79
2022/01/12 06:51:13;;;;;;;62.03;23.63;;;4.30;99.90;;;;;;7333169;19;114281;-79
2022/01/12 06:53:41;;;;;;;57.97;24.33;;;4.30;99.90;;;;;;7334288;19;112767;-79
2022/01/12 06:56:08;;;;;;;62.43;24.03;;;4.30;99.90;;;;;;7334797;19;111928;-78
2022/01/12 06:58:35;;;;;;;64.70;24.67;;;4.30;99.90;;;;;;7336503;19;112339;-78
2022/01/12 07:01:02;;;;;;;61.33;23.73;;;4.30;99.90;;;;;;7341518;19;112414;-78
2022/01/12 07:03:29;;;;;;;60.33;23.80;;;4.30;99.90;;;;;;7339015;19;113209;-79
2022/01/12 07:05:56;;;;;;;56.47;23.23;;;4.40;99.90;;;;;;7335440;19;112735;-78
2022/01/12 07:08:23;;;;;;;56.73;23.30;;;4.40;99.90;;;;;;7342833;19;112020;-78
2022/01/12 07:10:50;;;;;;;56.53;24.13;;;4.40;99.90;;;;;;7343403;19;112484;-78
2022/01/12 07:13:17;;;;;;;60.00;24.57;;;4.40;99.90;;;;;;7345499;19;112849;-78
2022/01/12 07:15:44;;;;;;;49.60;24.00;;;4.40;99.90;;;;;;7342369;19;112519;-78
2022/01/12 07:18:12;;;;;;;60.47;24.40;;;4.40;99.90;;;;;;7337926;19;113171;-79
2022/01/12 07:20:39;;;;;;;62.10;23.67;;;4.40;99.90;;;;;;7342662;19;112671;-79
2022/01/12 07:23:05;;;;;;;;;;;4.40;99.90;;;;;;7347950;19;111911;-79
2022/01/12 07:25:32;;;;;;;92.30;27.67;;;4.30;99.90;;;;;;7352460;19;109554;-78
2022/01/12 07:27:59;;;;;;;62.83;24.73;;;4.30;99.90;;;;;;7341489;19;113130;-78
2022/01/12 07:30:27;;;;;;;56.73;24.57;;;4.30;99.90;;;;;;7344353;19;112364;-78
2022/01/12 07:32:54;;;;;;;64.43;26.00;;;4.40;99.90;;;;;;7342665;19;113569;-79
2022/01/12 07:35:21;;;;;;;68.00;26.20;;;4.40;99.90;;;;;;7345663;19;111986;-79
2022/01/12 07:37:48;;;;;;;72.10;25.83;;;4.40;99.90;;;;;;7342082;19;111898;-78
2022/01/12 07:40:15;;;;;;;65.20;26.73;;;4.40;99.90;;;;;;7344191;19;112770;-78
2022/01/12 07:42:43;;;;;;;64.63;25.20;;;4.40;99.90;;;;;;7345743;19;112118;-78
2022/01/12 07:45:10;;;;;;;65.60;27.20;;;4.50;99.90;;;;;;7347773;19;112278;-78
2022/01/12 07:47:37;;;;;;;66.27;26.40;;;4.50;99.90;;;;;;7346554;19;112991;-79
2022/01/12 07:50:05;;;;;;;64.03;26.37;;;4.50;99.90;;;;;;7343107;19;113049;-78
2022/01/12 07:52:33;;;;;;;63.77;26.60;;;4.50;99.90;;;;;;7345423;19;112513;-79
2022/01/12 07:55:00;;;;;;;67.60;25.63;;;4.50;99.90;;;;;;7341639;19;113104;-78
2022/01/12 07:57:28;;;;;;;65.47;25.87;;;4.50;99.90;;;;;;7344762;19;112121;-78
2022/01/12 07:59:55;;;;;;;74.67;27.90;;;4.50;99.90;;;;;;7342008;19;115348;-78
2022/01/12 08:02:22;;;;;;;85.33;30.07;;;4.50;99.90;;;;;;7342369;19;112226;-78
2022/01/12 08:04:50;;;;;;;82.40;29.00;;;4.60;99.90;;;;;;7343343;19;112031;-78
2022/01/12 08:07:17;;;;;;;80.00;28.93;;;4.60;99.90;;;;;;7345917;19;112505;-78
2022/01/12 08:09:44;;;;;;;73.70;27.23;;;4.60;99.90;;;;;;7344014;19;113082;-78
2022/01/12 08:12:12;;;;;;;85.77;30.20;;;4.60;99.90;;;;;;7341212;19;112363;-79
2022/01/12 08:14:39;;;;;;;70.03;27.37;;;4.60;99.90;;;;;;7344087;19;112024;-78
2022/01/12 08:17:06;;;;;;;82.03;28.67;;;4.60;99.90;;;;;;7342151;19;112843;-79
2022/01/12 08:19:36;;;;;;;70.27;27.03;;;4.60;99.90;;;;;;7343651;19;112499;-78
2022/01/12 08:22:03;;;;;;;72.13;27.60;;;4.60;99.90;;;;;;7341477;19;112102;-78
2022/01/12 08:24:31;;;;;;;83.53;29.23;;;4.60;99.90;;;;;;7342753;19;112318;-79
2022/01/12 08:27:07;;;;;;;77.03;28.83;;;4.60;99.90;;;;;;7342643;19;116204;-79
2022/01/12 08:29:34;;;;;;;88.10;30.50;;;4.60;99.90;;;;;;7344101;19;112112;-79
2022/01/12 08:32:01;;;;;;;92.27;30.53;;;4.60;99.90;;;;;;7343461;19;112672;-79
2022/01/12 08:34:29;;;;;;;81.27;29.43;;;4.70;99.90;;;;;;7339372;19;111846;-78
2022/01/12 08:36:56;;;;;;;80.97;29.77;;;4.70;99.90;;;;;;7341286;19;112504;-78
2022/01/12 08:39:23;;;;;;;79.33;28.93;;;4.60;99.90;;;;;;7340923;19;113183;-78
2022/01/12 08:41:50;;;;;;;79.43;28.50;;;4.70;99.90;;;;;;7340962;19;113453;-78
2022/01/12 08:44:34;;;;;;;76.77;28.37;;;4.70;99.90;;;;;;7340744;19;114748;-78
2022/01/12 08:47:02;;;;;;;78.20;28.77;;;4.70;99.90;;;;;;7341305;19;111836;-78
2022/01/12 08:49:30;;;;;;;73.80;29.40;;;4.80;99.90;;;;;;7349189;19;111755;-79
2022/01/12 08:51:57;;;;;;;88.73;30.13;;;4.80;99.90;;;;;;7340300;19;113025;-78
2022/01/12 08:54:24;;;;;;;86.10;31.20;;;4.80;99.90;;;;;;7342009;19;111792;-79
2022/01/12 08:56:51;;;;;;;;;;;4.80;99.90;;;;;;7341297;19;113707;-78
2022/01/12 08:59:17;;;;;;;94.13;30.00;;;4.80;99.90;;;;;;7346292;19;111250;-78
2022/01/12 09:01:45;;;;;;;;;;;4.80;99.90;;;;;;7344067;19;112969;-78
2022/01/12 09:04:12;;;;;;;90.67;29.83;;;4.80;99.90;;;;;;7347155;19;112859;-78
2022/01/12 09:06:39;;;;;;;101.27;30.53;;;4.90;99.90;;;;;;7342166;19;110780;-78
2022/01/12 09:09:06;;;;;;;;;;;4.90;99.90;;;;;;7340653;19;111918;-79
2022/01/12 09:11:33;;;;;;;97.53;30.60;;;4.90;99.90;;;;;;7355052;19;112551;-78
2022/01/12 09:14:00;;;;;;;;;;;4.90;99.90;;;;;;7338179;19;111917;-79
2022/01/12 09:16:27;;;;;;;115.67;31.77;;;4.90;99.90;;;;;;7348686;19;112280;-78
2022/01/12 09:18:54;;;;;;;91.07;32.13;;;5.00;99.90;;;;;;7340292;19;112311;-78
2022/01/12 09:21:22;;;;;;;102.07;32.83;;;5.00;99.90;;;;;;7342149;19;112250;-79
2022/01/12 09:23:49;;;;;;;106.20;31.13;;;5.00;99.90;;;;;;7340119;19;110429;-78
2022/01/12 09:26:16;;;;;;;94.97;32.50;;;5.00;99.90;;;;;;7337718;19;112742;-78
2022/01/12 09:28:45;;;;;;;111.13;34.43;;;5.10;99.90;;;;;;7342730;19;112683;-78
2022/01/12 09:31:12;;;;;;;105.30;32.93;;;5.10;99.90;;;;;;7338878;19;112306;-79
2022/01/12 09:33:39;;;;;;;116.13;32.97;;;5.10;99.90;;;;;;7347301;19;113619;-78
2022/01/12 09:36:06;;;;;;;121.83;34.60;;;5.10;99.90;;;;;;7339349;19;112208;-78
2022/01/12 09:38:33;;;;;;;100.17;32.47;;;5.20;99.90;;;;;;7339375;19;111017;-78
2022/01/12 09:41:02;;;;;;;113.93;34.17;;;5.20;99.90;;;;;;7341881;19;112127;-79
2022/01/12 09:43:33;;;;;;;123.00;34.73;;;5.20;99.90;;;;;;7338224;19;112371;-78
2022/01/12 09:46:01;;;;;;;106.43;33.73;;;5.20;99.90;;;;;;7338591;19;112763;-78
2022/01/12 09:48:33;;;;;;;108.73;33.60;;;5.20;99.90;;;;;;7338292;19;112293;-78
2022/01/12 09:51:04;;;;;;;94.37;31.77;;;5.30;99.90;;;;;;7342179;19;111481;-78
2022/01/12 09:53:33;;;;;;;102.27;32.07;;;5.30;99.90;;;;;;7339135;19;112469;-78
2022/01/12 09:56:06;;;;;;;107.37;32.83;;;5.40;99.90;;;;;;7345349;19;111858;-78
2022/01/12 09:58:34;;;;;;;105.53;32.77;;;5.30;99.90;;;;;;7338952;19;111459;-78
2022/01/12 10:01:03;;;;;;;106.93;32.47;;;5.40;99.90;;;;;;7332606;19;111703;-78
2022/01/12 10:03:32;;;;;;;111.40;34.67;;;5.40;99.90;;;;;;7340313;19;112445;-78
2022/01/12 10:06:10;;;;;;;128.03;35.13;;;5.40;99.90;;;;;;7338174;19;112771;-78
2022/01/12 10:08:37;;;;;;;111.33;34.77;;;5.40;99.90;;;;;;7340342;19;112338;-78
2022/01/12 10:11:08;;;;;;;;;;;5.50;99.90;;;;;;7336005;19;112240;-79
2022/01/12 10:13:37;;;;;;;119.47;34.10;;;5.50;99.90;;;;;;7346385;19;113191;-78
2022/01/12 10:16:15;;;;;;;140.70;37.23;;;5.50;99.90;;;;;;7341093;19;112076;-79
2022/01/12 10:18:55;;;;;;;126.33;35.20;;;5.50;99.90;;;;;;7345939;19;112584;-78
2022/01/12 10:21:36;;;;;;;135.43;36.37;;;5.60;99.90;;;;;;7337782;19;111804;-78
2022/01/12 10:24:18;;;;;;;137.03;36.90;;;5.60;99.90;;;;;;7336409;19;111998;-78
2022/01/12 10:26:47;;;;;;;154.60;39.37;;;5.60;99.90;;;;;;7341926;19;116778;-78
2022/01/12 10:29:23;;;;;;;162.67;45.37;;;5.60;99.90;;;;;;7336108;19;111825;-79
2022/01/12 10:32:02;;;;;;;159.20;45.47;;;5.60;99.90;;;;;;7340400;19;111995;-79
2022/01/12 10:34:36;;;;;;;138.70;38.43;;;5.70;99.90;;;;;;7338607;19;116603;-78
2022/01/12 10:37:07;;;;;;;177.50;40.43;;;5.70;99.90;;;;;;7338911;19;112139;-78
2022/01/12 10:39:42;;;;;;;153.53;39.23;;;5.70;99.90;;;;;;7339748;19;113301;-77
2022/01/12 10:42:12;;;;;;;137.50;37.70;;;5.80;99.90;;;;;;7340678;19;112370;-78
2022/01/12 10:44:43;;;;;;;181.97;42.70;;;5.80;99.90;;;;;;7339633;19;112193;-78
2022/01/12 10:47:13;;;;;;;171.40;41.67;;;5.80;99.90;;;;;;7334986;19;112767;-78
2022/01/12 10:50:00;;;;;;;162.17;40.80;;;5.80;99.90;;;;;;7339928;19;111777;-79
2022/01/12 10:52:49;;;;;;;408.20;48.33;;;5.90;99.90;;;;;;7336060;19;111961;-79
2022/01/12 10:55:17;;;;;;;187.70;40.63;;;5.90;99.90;;;;;;7335357;19;111055;-79
2022/01/12 10:57:46;;;;;;;173.87;40.87;;;5.90;99.90;;;;;;7340718;19;111732;-78
2022/01/12 11:00:19;;;;;;;142.03;38.83;;;6.00;99.90;;;;;;7336225;19;111646;-79
2022/01/12 11:02:58;;;;;;;175.93;42.40;;;6.00;99.90;;;;;;7345478;19;111311;-78
2022/01/12 11:05:27;;;;;;;174.40;42.00;;;6.00;99.90;;;;;;7335503;19;112956;-78
2022/01/12 11:07:55;;;;;;;172.83;41.97;;;6.00;99.90;;;;;;7339268;19;113799;-79
2022/01/12 11:10:23;;;;;;;231.83;44.37;;;6.00;99.90;;;;;;7337361;19;111933;-78
2022/01/12 11:12:51;;;;;;;169.10;42.57;;;5.90;99.90;;;;;;7337314;19;112297;-78
2022/01/12 11:15:20;;;;;;;185.23;42.13;;;6.00;99.90;;;;;;7339812;19;113029;-78
2022/01/12 11:17:49;;;;;;;317.57;43.87;;;6.00;99.90;;;;;;7335999;19;112310;-79
2022/01/12 11:20:28;;;;;;;158.83;37.23;;;6.00;99.90;;;;;;7337710;19;112265;-78
2022/01/12 11:23:06;;;;;;;221.23;35.17;;;6.00;99.90;;;;;;7335951;19;112832;-79
2022/01/12 11:25:39;;;;;;;191.75;34.35;;;6.00;99.90;;;;;;7343467;19;112587;-78
2022/01/12 11:28:18;;;;;;;140.53;31.00;;;6.00;99.90;;;;;;7336994;19;113626;-78
2022/01/12 11:30:59;;;;;;;133.13;31.43;;;6.00;99.90;;;;;;7336023;19;112089;-78
2022/01/12 11:33:32;;;;;;;173.60;30.57;;;6.10;99.90;;;;;;7338673;19;111930;-78
2022/01/12 11:36:21;;;;;;;114.87;30.57;;;6.10;99.90;;;;;;7331771;19;111365;-78
2022/01/12 11:39:05;;;;;;;119.90;30.50;;;6.10;99.90;;;;;;7336268;19;111813;-78
2022/01/12 11:41:34;;;;;;;100.77;28.73;;;6.10;99.90;;;;;;7338082;19;112262;-78
2022/01/12 11:44:01;;;;;;;222.83;34.83;;;6.10;99.90;;;;;;7334745;19;112268;-78
2022/01/12 11:47:00;;;;;;;99.47;31.37;;;6.10;99.90;;;;;;7335842;19;111883;-79
2022/01/12 11:49:31;;;;;;;128.10;31.90;;;6.20;99.90;;;;;;7339865;19;112360;-78
2022/01/12 11:52:00;;;;;;;104.33;30.43;;;6.20;99.90;;;;;;7337085;19;111707;-78
2022/01/12 11:54:33;;;;;;;108.50;30.23;;;6.20;99.90;;;;;;7337707;19;113298;-78
2022/01/12 11:57:05;;;;;;;129.67;31.33;;;6.30;99.90;;;;;;7343307;19;113649;-78
2022/01/12 11:59:57;;;;;;;164.70;30.63;;;6.30;99.90;;;;;;7345547;19;113513;-79
2022/01/12 12:02:42;;;;;;;128.73;31.27;;;6.20;99.90;;;;;;7339695;19;112217;-78
2022/01/12 12:05:11;;;;;;;105.63;29.43;;;6.10;99.90;;;;;;7343407;19;113230;-78
2022/01/12 12:07:48;;;;;;;101.70;30.70;;;6.10;99.90;;;;;;7341890;19;113841;-79
2022/01/12 12:10:19;;;;;;;91.68;27.58;;;6.20;99.90;;;;;;7341775;19;111373;-78
2022/01/12 12:12:47;;;;;;;152.87;30.93;;;6.30;99.90;;;;;;7348800;19;112710;-79
2022/01/12 12:15:14;;;;;;;120.07;32.00;;;6.20;99.90;;;;;;7342219;19;113036;-78
2022/01/12 12:17:42;;;;;;;182.87;33.10;;;6.20;99.90;;;;;;7341875;19;112849;-78
2022/01/12 12:20:15;;;;;;;207.57;32.35;;;6.20;99.90;;;;;;7341315;19;112079;-78
2022/01/12 12:22:45;;;;;;;129.00;29.87;;;6.20;99.90;;;;;;7344112;19;112220;-79
2022/01/12 12:25:21;;;;;;;105.37;29.80;;;6.20;99.90;;;;;;7340957;19;110783;-78
2022/01/12 12:27:54;;;;;;;89.93;29.53;;;6.20;99.90;;;;;;7341326;19;112088;-78
2022/01/12 12:30:23;;;;;;;108.57;30.37;;;6.30;99.90;;;;;;7340030;19;112518;-78
2022/01/12 12:32:56;;;;;;;216.70;34.10;;;6.40;99.90;;;;;;7341917;19;112842;-79
2022/01/12 12:35:27;;;;;;;133.93;32.27;;;6.30;99.90;;;;;;7349863;19;111858;-79
2022/01/12 12:38:00;;;;;;;173.87;34.63;;;6.20;99.90;;;;;;7338594;19;112448;-79
2022/01/12 12:40:39;;;;;;;209.77;34.70;;;6.20;99.90;;;;;;7342636;19;113664;-79
2022/01/12 12:43:14;;;;;;;127.03;33.37;;;6.20;99.90;;;;;;7345263;19;112624;-78
2022/01/12 12:45:56;;;;;;;141.13;32.55;;;6.20;99.90;;;;;;7340915;19;112883;-79
2022/01/12 12:48:29;;;;;;;169.20;32.08;;;6.20;99.90;;;;;;7341536;19;112244;-79
2022/01/12 12:51:02;;;;;;;102.33;29.93;;;6.20;99.90;;;;;;7340279;19;111935;-78
2022/01/12 12:53:32;;;;;;;117.57;29.67;;;6.20;99.90;;;;;;7342056;19;112356;-78
2022/01/12 12:56:00;;;;;;;197.30;31.30;;;6.20;99.90;;;;;;7336288;19;111761;-79
2022/01/12 12:58:32;;;;;;;226.87;32.60;;;6.30;99.90;;;;;;7345623;19;110115;-79
2022/01/12 13:01:10;;;;;;;181.67;31.00;;;6.30;99.90;;;;;;7341598;19;112642;-78
2022/01/12 13:03:39;;;;;;;157.00;30.50;;;6.20;99.90;;;;;;7340437;19;112038;-78
2022/01/12 13:06:06;;;;;;;230.03;33.43;;;6.10;99.90;;;;;;7340058;19;112340;-79
2022/01/12 13:08:33;;;;;;;140.67;30.20;;;6.10;99.90;;;;;;7339856;19;112157;-79
2022/01/12 13:11:06;;;;;;;121.17;29.00;;;6.20;99.90;;;;;;7342043;19;112668;-79
2022/01/12 13:13:33;;;;;;;128.77;27.10;;;6.30;99.90;;;;;;7341825;19;113052;-80
2022/01/12 13:16:01;;;;;;;158.40;28.07;;;6.30;99.90;;;;;;7340254;19;114487;-79
2022/01/12 13:18:28;;;;;;;183.50;32.93;;;6.20;99.90;;;;;;7346627;19;112491;-79
2022/01/12 13:21:09;;;;;;;133.90;33.10;;;6.30;99.90;;;;;;7340106;19;112077;-79
2022/01/12 13:23:45;;;;;;;231.48;33.17;;;6.40;99.90;;;;;;7340877;19;112321;-79
2022/01/12 13:26:15;;;;;;;132.37;33.07;;;6.30;99.90;;;;;;7341284;19;112897;-79
2022/01/12 13:28:46;;;;;;;124.07;30.97;;;6.30;99.90;;;;;;7340231;19;110148;-79
2022/01/12 13:31:16;;;;;;;116.90;29.30;;;6.40;99.90;;;;;;7344057;19;112954;-79
2022/01/12 13:33:46;;;;;;;125.80;30.73;;;6.50;99.90;;;;;;7339139;19;114903;-79
2022/01/12 13:36:22;;;;;;;100.88;29.17;;;6.40;99.90;;;;;;7340075;19;112070;-79
2022/01/12 13:38:54;;;;;;;94.30;26.90;;;6.50;99.90;;;;;;7339943;19;115104;-79
2022/01/12 13:41:25;;;;;;;231.47;30.10;;;6.50;99.90;;;;;;7344341;19;112504;-78
2022/01/12 13:43:59;;;;;;;109.70;26.10;;;6.50;99.90;;;;;;7340455;19;115555;-80
2022/01/12 13:46:39;;;;;;;97.72;26.95;;;6.50;99.90;;;;;;7338116;19;111114;-80
2022/01/12 13:49:31;;;;;;;106.55;28.83;;;6.50;99.90;;;;;;7341377;19;112130;-79
2022/01/12 13:52:05;;;;;;;101.22;27.23;;;6.50;99.90;;;;;;7338998;19;112537;-79
2022/01/12 13:54:35;;;;;;;84.90;26.45;;;6.50;99.90;;;;;;7338435;19;112625;-79
2022/01/12 13:57:05;;;;;;;162.53;28.43;;;6.50;99.90;;;;;;7340835;19;112302;-78
2022/01/12 13:59:48;;;;;;;107.93;26.13;;;6.50;99.90;;;;;;7339197;19;111959;-79
2022/01/12 14:02:18;;;;;;;114.27;27.20;;;6.40;99.90;;;;;;7340380;19;113003;-79
2022/01/12 14:04:54;;;;;;;124.47;28.07;;;6.40;99.90;;;;;;7342666;19;111957;-79
2022/01/12 14:07:26;;;;;;;103.27;26.27;;;6.40;99.90;;;;;;7335021;19;111221;-79
2022/01/12 14:09:55;;;;;;;111.10;28.40;;;6.40;99.90;;;;;;7340070;19;112756;-78
2022/01/12 14:12:24;;;;;;;121.97;27.80;;;6.40;99.90;;;;;;7338506;19;112385;-79
2022/01/12 14:14:57;;;;;;;89.93;25.77;;;6.40;99.90;;;;;;7342101;19;115053;-79
2022/01/12 14:17:44;;;;;;;73.93;23.40;;;6.40;99.90;;;;;;7338293;19;112143;-79
2022/01/12 14:20:21;;;;;;;70.67;22.67;;;6.40;99.90;;;;;;7338361;19;113350;-79
2022/01/12 14:22:53;;;;;;;81.03;24.88;;;6.50;99.90;;;;;;7340656;19;112739;-79
2022/01/12 14:25:34;;;;;;;81.07;25.37;;;6.50;99.90;;;;;;7338179;19;113674;-79
2022/01/12 14:28:03;;;;;;;71.30;22.77;;;6.40;99.90;;;;;;7347178;19;114377;-79
2022/01/12 14:30:30;;;;;;;67.53;22.80;;;6.50;99.90;;;;;;7337769;19;111866;-79
2022/01/12 14:32:57;;;;;;;69.57;22.87;;;6.50;99.90;;;;;;7337400;19;112113;-78
2022/01/12 14:35:25;;;;;;;;;;;6.50;99.90;;;;;;7334495;19;112829;-79
2022/01/12 14:37:53;;;;;;;76.53;23.17;;;6.50;99.90;;;;;;7340846;19;115230;-79
2022/01/12 14:40:21;;;;;;;71.73;22.80;;;6.40;99.90;;;;;;7339465;19;110249;-79
2022/01/12 14:42:54;;;;;;;68.30;22.37;;;6.40;99.90;;;;;;7336032;19;112848;-79
2022/01/12 14:45:27;;;;;;;74.57;23.50;;;6.30;99.90;;;;;;7341100;19;111946;-79
2022/01/12 14:47:56;;;;;;;66.33;23.03;;;6.30;99.90;;;;;;7335539;19;111200;-79
2022/01/12 14:50:24;;;;;;;71.37;21.97;;;6.40;99.90;;;;;;7346420;19;112982;-79
2022/01/12 14:52:53;;;;;;;62.67;22.23;;;6.40;99.90;;;;;;7336275;19;112442;-79
2022/01/12 14:55:40;;;;;;;74.60;22.97;;;6.40;99.90;;;;;;7335365;19;114166;-79
2022/01/12 14:58:07;;;;;;;74.03;22.70;;;6.50;99.90;;;;;;7338586;19;111838;-78
2022/01/12 15:00:34;;;;;;;60.80;21.80;;;6.40;99.90;;;;;;7336563;19;112925;-79
2022/01/12 15:03:06;;;;;;;63.87;20.87;;;6.50;99.90;;;;;;7338583;19;111206;-79
2022/01/12 15:05:35;;;;;;;62.50;20.87;;;6.40;99.90;;;;;;7335793;19;111851;-79
2022/01/12 15:08:03;;;;;;;73.37;23.63;;;6.40;99.90;;;;;;7335092;19;110690;-79
2022/01/12 15:10:30;;;;;;;60.38;22.08;;;6.40;99.90;;;;;;7342199;19;112347;-79
2022/01/12 15:13:13;;;;;;;66.73;21.57;;;6.50;99.90;;;;;;7336489;19;112271;-79
2022/01/12 15:15:40;;;;;;;63.90;22.77;;;6.40;99.90;;;;;;7339914;19;112444;-79
2022/01/12 15:18:07;;;;;;;68.50;23.33;;;6.40;99.90;;;;;;7335961;19;112112;-79
2022/01/12 15:20:34;;;;;;;;;;;6.40;99.90;;;;;;7339406;19;112362;-79
2022/01/12 15:23:01;;;;;;;68.73;21.70;;;6.40;99.90;;;;;;7343088;19;111069;-79
2022/01/12 15:25:28;;;;;;;58.43;22.00;;;6.30;99.90;;;;;;7338717;19;112426;-79
2022/01/12 15:27:56;;;;;;;66.27;22.27;;;6.30;99.90;;;;;;7335688;19;112279;-79
2022/01/12 15:30:23;;;;;;;65.67;21.73;;;6.40;99.90;;;;;;7339120;19;112429;-79
2022/01/12 15:32:51;;;;;;;66.80;22.20;;;6.40;99.90;;;;;;7349753;19;112189;-79
2022/01/12 15:35:19;;;;;;;71.70;23.13;;;6.30;99.90;;;;;;7339544;19;112633;-79
2022/01/12 15:37:46;;;;;;;68.03;22.00;;;6.30;99.90;;;;;;7346292;19;111956;-78
2022/01/12 15:40:14;;;;;;;68.17;22.03;;;6.30;99.90;;;;;;7343290;19;112450;-80
2022/01/12 15:42:41;;;;;;;74.33;22.17;;;6.30;99.90;;;;;;7343531;19;112632;-79
2022/01/12 15:45:09;;;;;;;62.63;21.80;;;6.30;99.90;;;;;;7343943;19;112065;-79
2022/01/12 15:47:36;;;;;;;59.93;19.83;;;6.30;99.90;;;;;;7341229;19;112203;-80
2022/01/12 15:50:05;;;;;;;58.10;20.27;;;6.30;99.90;;;;;;7345426;19;112834;-80
2022/01/12 15:52:32;;;;;;;63.37;21.90;;;6.30;99.90;;;;;;7341856;19;110559;-79
2022/01/12 15:54:59;;;;;;;60.07;20.13;;;6.30;99.90;;;;;;7349752;19;112341;-79
2022/01/12 15:57:26;;;;;;;69.10;21.93;;;6.30;99.90;;;;;;7345248;19;113092;-76
2022/01/12 15:59:53;;;;;;;62.37;21.77;;;6.30;99.90;;;;;;7341114;19;114414;-79
2022/01/12 16:02:21;;;;;;;57.77;21.70;;;6.30;99.90;;;;;;7345252;19;112776;-78
2022/01/12 16:04:49;;;;;;;59.07;20.67;;;6.20;99.90;;;;;;7339847;19;112035;-79
2022/01/12 16:07:17;;;;;;;59.57;20.97;;;6.20;99.90;;;;;;7342697;19;111879;-78
2022/01/12 16:09:45;;;;;;;55.77;21.00;;;6.30;99.90;;;;;;7340532;19;112659;-79
2022/01/12 16:12:13;;;;;;;58.10;20.80;;;6.30;99.90;;;;;;7343118;19;110486;-78
2022/01/12 16:15:02;;;;;;;57.47;20.35;;;6.30;99.90;;;;;;7343458;19;111832;-78
2022/01/12 16:17:30;;;;;;;52.40;19.23;;;6.30;99.90;;;;;;7346658;19;112376;-79
2022/01/12 16:19:57;;;;;;;56.60;19.80;;;6.30;99.90;;;;;;7337658;19;113883;-79
2022/01/12 16:22:23;;;;;;;;;;;6.30;99.90;;;;;;7338050;19;112734;-78
2022/01/12 16:24:51;;;;;;;51.87;18.90;;;6.20;99.90;;;;;;7337914;19;112790;-79
2022/01/12 16:27:18;;;;;;;58.10;20.07;;;6.10;99.90;;;;;;7332789;19;110472;-78
2022/01/12 16:29:45;;;;;;;54.00;19.70;;;6.10;99.90;;;;;;7335908;19;112880;-79
2022/01/12 16:32:13;;;;;;;54.07;21.00;;;6.10;99.90;;;;;;7333225;19;112471;-79
2022/01/12 16:34:40;;;;;;;53.43;20.87;;;6.20;99.90;;;;;;7335008;19;114131;-79
2022/01/12 16:37:07;;;;;;;59.17;21.50;;;6.20;99.90;;;;;;7331231;19;112856;-78
2022/01/12 16:39:41;;;;;;;58.80;22.27;;;6.20;99.90;;;;;;7338482;19;111793;-78
2022/01/12 16:42:10;;;;;;;66.57;21.80;;;6.20;99.90;;;;;;7330855;19;113239;-79
2022/01/12 16:44:38;;;;;;;55.23;20.73;;;6.20;99.90;;;;;;7333402;19;112023;-79
2022/01/12 16:47:05;;;;;;;67.30;23.90;;;6.20;99.90;;;;;;7333379;19;110340;-78
2022/01/12 16:49:32;;;;;;;69.67;23.53;;;6.20;99.90;;;;;;7329924;19;113020;-78
2022/01/12 16:52:04;;;;;;;61.17;22.13;;;6.20;99.90;;;;;;7332885;19;112723;-79
2022/01/12 16:54:31;;;;;;;60.57;22.03;;;6.10;99.90;;;;;;7331824;19;112343;-78
2022/01/12 16:56:58;;;;;;;64.10;22.50;;;6.10;99.90;;;;;;7336052;19;112635;-79
2022/01/12 16:59:25;;;;;;;63.97;23.40;;;6.20;99.90;;;;;;7329682;19;112186;-79
2022/01/12 17:01:52;;;;;;;;;;;6.20;99.90;;;;;;7341109;19;110588;-78
2022/01/12 17:04:19;;;;;;;61.30;21.93;;;6.20;99.90;;;;;;7334595;19;111842;-78
2022/01/12 17:06:52;;;;;;;66.90;24.17;;;6.10;99.90;;;;;;7332951;19;111651;-78
2022/01/12 17:09:19;;;;;;;61.73;23.73;;;6.10;99.90;;;;;;7330931;19;113782;-79
2022/01/12 17:11:46;;;;;;;72.50;24.17;;;6.10;99.90;;;;;;7332388;19;112154;-79
2022/01/12 17:14:13;;;;;;;66.70;23.60;;;6.10;99.90;;;;;;7332961;19;112719;-79
2022/01/12 17:16:46;;;;;;;69.43;23.43;;;6.20;99.90;;;;;;7332205;19;113047;-79
2022/01/12 17:19:22;;;;;;;76.63;23.03;;;6.10;99.90;;;;;;7332284;19;112231;-79
2022/01/12 17:22:11;;;;;;;66.07;23.37;;;6.00;99.90;;;;;;7333856;19;113978;-79
2022/01/12 17:25:02;;;;;;;63.47;23.43;;;5.90;99.90;;;;;;7332475;19;111950;-79
2022/01/12 17:27:30;;;;;;;67.13;22.70;;;5.80;99.90;;;;;;7327474;19;114911;-79
2022/01/12 17:29:57;;;;;;;65.00;23.73;;;5.90;99.90;;;;;;7332461;19;111007;-78
2022/01/12 17:32:27;;;;;;;62.90;21.83;;;5.90;99.90;;;;;;7332894;19;112053;-79
2022/01/12 17:34:55;;;;;;;66.07;22.40;;;5.90;99.90;;;;;;7333638;19;113387;-78
2022/01/12 17:37:23;;;;;;;63.80;21.90;;;5.90;99.90;;;;;;7328799;19;112592;-79
2022/01/12 17:39:53;;;;;;;57.03;21.67;;;6.00;99.90;;;;;;7329506;19;112160;-79
2022/01/12 17:42:25;;;;;;;66.83;22.83;;;6.00;99.90;;;;;;7331966;19;112105;-79
2022/01/12 17:44:55;;;;;;;57.00;22.07;;;6.00;99.90;;;;;;7330511;19;114490;-79
2022/01/12 17:47:26;;;;;;;72.97;21.90;;;6.00;99.90;;;;;;7331133;19;112225;-79
2022/01/12 17:50:17;;;;;;;56.93;21.87;;;6.00;99.90;;;;;;7329123;19;113475;-79
2022/01/12 17:52:47;;;;;;;60.83;21.83;;;6.00;99.90;;;;;;7333463;19;112107;-80
2022/01/12 17:55:16;;;;;;;70.57;24.07;;;5.90;99.90;;;;;;7329341;19;110611;-78
2022/01/12 17:57:43;;;;;;;59.97;22.00;;;5.90;99.90;;;;;;7334150;19;112788;-79
2022/01/12 18:00:32;;;;;;;60.57;21.83;;;5.90;99.90;;;;;;7331409;19;111782;-79
2022/01/12 18:03:00;;;;;;;59.13;21.23;;;5.90;99.90;;;;;;7332298;19;112286;-78
2022/01/12 18:05:27;;;;;;;63.33;23.33;;;5.90;99.90;;;;;;7326897;19;112357;-79
2022/01/12 18:07:54;;;;;;;60.83;21.80;;;5.90;99.90;;;;;;7336626;19;111503;-79
2022/01/12 18:10:22;;;;;;;60.93;22.17;;;5.90;99.90;;;;;;7331871;19;112663;-78
2022/01/12 18:12:49;;;;;;;64.90;22.83;;;5.90;99.90;;;;;;7328417;19;114894;-78
2022/01/12 18:15:16;;;;;;;61.40;21.97;;;5.90;99.90;;;;;;7332894;19;113001;-78
2022/01/12 18:17:47;;;;;;;68.73;23.93;;;5.90;99.90;;;;;;7328231;19;115779;-79
2022/01/12 18:20:16;;;;;;;72.50;23.93;;;5.90;99.90;;;;;;7331333;19;111916;-78
2022/01/12 18:22:47;;;;;;;61.90;23.27;;;5.90;99.90;;;;;;7329256;19;112018;-79
2022/01/12 18:25:14;;;;;;;62.47;22.83;;;5.90;99.90;;;;;;7333598;19;112725;-79
2022/01/12 18:27:43;;;;;;;69.30;23.63;;;5.90;99.90;;;;;;7328520;19;112120;-79
2022/01/12 18:30:10;;;;;;;65.70;22.33;;;5.90;99.90;;;;;;7337996;19;113898;-78
2022/01/12 18:32:37;;;;;;;64.77;21.60;;;5.80;99.90;;;;;;7328644;19;113144;-78
2022/01/12 18:35:04;;;;;;;61.90;21.13;;;5.90;99.90;;;;;;7333745;19;112035;-79
2022/01/12 18:37:31;;;;;;;66.27;21.87;;;5.80;99.90;;;;;;7328939;19;112643;-78
2022/01/12 18:39:58;;;;;;;73.37;23.47;;;5.80;99.90;;;;;;7332183;19;112512;-78
2022/01/12 18:42:28;;;;;;;64.47;22.77;;;5.80;99.90;;;;;;7331041;19;111050;-79
2022/01/12 18:44:55;;;;;;;65.43;22.13;;;5.80;99.90;;;;;;7330686;19;115908;-79
2022/01/12 18:47:25;;;;;;;64.33;20.73;;;5.80;99.90;;;;;;7330634;19;111940;-79
2022/01/12 18:49:52;;;;;;;67.47;22.00;;;5.80;99.90;;;;;;7331435;19;111843;-78
2022/01/12 18:52:19;;;;;;;68.77;22.23;;;5.80;99.90;;;;;;7334148;19;112558;-78
2022/01/12 18:54:46;;;;;;;76.97;24.03;;;5.70;99.90;;;;;;7324923;19;110757;-78
2022/01/12 18:57:12;;;;;;;;;;;5.80;99.90;;;;;;7332202;19;112501;-79
2022/01/12 18:59:40;;;;;;;66.37;22.23;;;5.70;99.90;;;;;;7334686;19;112265;-78
2022/01/12 19:02:08;;;;;;;70.13;22.70;;;5.70;99.90;;;;;;7334504;19;109801;-79
2022/01/12 19:04:36;;;;;;;66.50;23.07;;;5.70;99.90;;;;;;7325024;19;113449;-79
2022/01/12 19:07:03;;;;;;;65.57;22.20;;;5.70;99.90;;;;;;7329784;19;112072;-78
2022/01/12 19:09:30;;;;;;;68.70;22.20;;;5.70;99.90;;;;;;7325691;19;112310;-79
2022/01/12 19:11:57;;;;;;;63.17;21.77;;;5.70;99.90;;;;;;7329180;19;112596;-79
2022/01/12 19:14:24;;;;;;;68.63;21.70;;;5.70;99.90;;;;;;7331535;19;112736;-78
2022/01/12 19:16:51;;;;;;;57.17;19.60;;;5.60;99.90;;;;;;7329965;19;112638;-79
2022/01/12 19:19:19;;;;;;;55.17;19.93;;;5.60;99.90;;;;;;7328511;19;111024;-78
2022/01/12 19:21:47;;;;;;;57.47;19.67;;;5.60;99.90;;;;;;7328611;19;114825;-78
2022/01/12 19:24:16;;;;;;;62.50;20.47;;;5.50;99.90;;;;;;7329839;19;111116;-79
2022/01/12 19:26:46;;;;;;;57.53;20.23;;;5.50;99.90;;;;;;7329688;19;115344;-78